createdAt,value
2018-03-06T00:00:07.561Z,67.25
2018-03-06T00:02:36.858Z,67.41
2018-03-06T00:05:05.159Z,68.25
2018-03-06T00:07:33.413Z,68.37
2018-03-06T00:10:02.328Z,68.40
2018-03-06T00:12:30.739Z,67.76
2018-03-06T00:14:59.963Z,67.93
2018-03-06T00:17:28.253Z,68.47
2018-03-06T00:19:56.564Z,68.81
2018-03-06T00:22:25.735Z,69.21
2018-03-06T00:24:54.076Z,68.09
2018-03-06T00:27:22.367Z,68.75
2018-03-06T00:29:50.780Z,68.70
2018-03-06T00:32:19.050Z,69.36
2018-03-06T00:34:47.324Z,69.39
2018-03-06T00:37:15.597Z,68.12
2018-03-06T00:39:43.845Z,68.28
2018-03-06T00:42:12.141Z,69.00
2018-03-06T00:44:40.396Z,68.59
2018-03-06T00:47:09.538Z,68.05
2018-03-06T00:49:37.781Z,68.50
2018-03-06T00:52:06.051Z,68.72
2018-03-06T00:54:34.319Z,68.12
2018-03-06T00:57:02.601Z,68.29
2018-03-06T00:59:30.901Z,65.11
2018-03-06T01:02:00.061Z,66.67
2018-03-06T01:04:28.920Z,66.98
2018-03-06T01:06:57.969Z,67.45
2018-03-06T01:09:26.374Z,67.82
2018-03-06T01:11:54.625Z,67.72
2018-03-06T01:14:22.932Z,66.93
2018-03-06T01:16:51.169Z,66.65
2018-03-06T01:19:19.473Z,67.18
2018-03-06T01:21:47.919Z,67.02
2018-03-06T01:24:16.263Z,67.60
2018-03-06T01:26:44.552Z,68.21
2018-03-06T01:29:12.814Z,67.57
2018-03-06T01:34:08.663Z,68.50
2018-03-06T01:36:36.952Z,68.32
2018-03-06T01:41:33.657Z,68.19
2018-03-06T01:44:02.836Z,69.09
2018-03-06T01:46:31.896Z,69.63
2018-03-06T01:49:00.182Z,69.29
2018-03-06T01:54:36.804Z,70.00
2018-03-06T01:57:05.946Z,69.40
2018-03-06T01:59:34.204Z,67.09
2018-03-06T02:02:02.474Z,67.83
2018-03-06T02:04:30.877Z,66.99
2018-03-06T02:07:00.239Z,63.92
2018-03-06T02:09:28.509Z,63.47
2018-03-06T02:11:59.133Z,64.80
2018-03-06T02:14:29.163Z,63.45
2018-03-06T02:16:58.286Z,64.81
2018-03-06T02:19:26.617Z,64.88
2018-03-06T02:21:55.702Z,63.86
2018-03-06T02:24:23.982Z,62.51
2018-03-06T02:26:54.231Z,62.35
2018-03-06T02:31:57.901Z,61.66
2018-03-06T02:34:26.172Z,61.64
2018-03-06T02:36:54.419Z,61.97
2018-03-06T02:39:23.596Z,61.87
2018-03-06T02:41:51.870Z,62.15
2018-03-06T02:44:20.808Z,62.25
2018-03-06T02:46:49.155Z,63.15
2018-03-06T02:49:18.347Z,64.23
2018-03-06T02:51:46.622Z,66.00
2018-03-06T02:54:14.947Z,66.35
2018-03-06T02:56:44.719Z,66.64
2018-03-06T02:59:12.980Z,67.11
2018-03-06T03:01:41.954Z,65.75
2018-03-06T03:04:10.210Z,66.08
2018-03-06T03:06:38.506Z,64.88
2018-03-06T03:09:06.754Z,64.80
2018-03-06T03:11:35.832Z,64.88
2018-03-06T03:14:04.135Z,65.00
2018-03-06T03:16:33.174Z,64.32
2018-03-06T03:19:01.449Z,64.40
2018-03-06T03:21:29.708Z,64.00
2018-03-06T03:23:57.977Z,64.25
2018-03-06T03:26:26.230Z,64.06
2018-03-06T03:28:55.280Z,64.73
2018-03-06T03:31:23.529Z,65.15
2018-03-06T03:33:51.784Z,65.20
2018-03-06T03:36:20.058Z,65.18
2018-03-06T03:38:49.806Z,65.49
2018-03-06T03:41:18.090Z,66.80
2018-03-06T03:43:46.458Z,66.74
2018-03-06T03:46:14.751Z,66.63
2018-03-06T03:48:43.023Z,67.33
2018-03-06T03:51:11.347Z,67.59
2018-03-06T03:53:40.570Z,67.96
2018-03-06T03:56:08.836Z,68.83
2018-03-06T03:58:37.123Z,69.40
2018-03-06T04:01:05.374Z,69.29
2018-03-06T04:03:33.664Z,69.41
2018-03-06T04:06:03.219Z,70.19
2018-03-06T04:08:31.595Z,69.83
2018-03-06T04:11:00.005Z,70.26
2018-03-06T04:13:28.305Z,71.18
2018-03-06T04:15:56.572Z,71.72
2018-03-06T04:18:24.959Z,71.60
2018-03-06T04:20:53.237Z,72.10
2018-03-06T04:23:21.532Z,71.65
2018-03-06T04:25:49.815Z,70.20
2018-03-06T04:28:20.160Z,70.97
2018-03-06T04:30:49.206Z,71.28
2018-03-06T04:33:17.473Z,71.75
2018-03-06T04:35:45.996Z,71.55
2018-03-06T04:38:14.256Z,72.22
2018-03-06T04:40:42.528Z,71.73
2018-03-06T04:43:10.780Z,70.65
2018-03-06T04:45:39.035Z,70.49
2018-03-06T04:48:08.013Z,71.18
2018-03-06T04:50:37.063Z,71.76
2018-03-06T04:53:05.370Z,71.94
2018-03-06T04:55:34.517Z,72.36
2018-03-06T04:58:02.796Z,72.63
2018-03-06T05:00:31.231Z,72.93
2018-03-06T05:03:00.330Z,72.25
2018-03-06T05:05:28.619Z,72.88
2018-03-06T05:07:56.939Z,73.05
2018-03-06T05:10:26.183Z,72.70
2018-03-06T05:12:54.545Z,72.77
2018-03-06T05:15:23.639Z,73.05
2018-03-06T05:17:52.737Z,73.46
2018-03-06T05:20:21.132Z,74.14
2018-03-06T05:22:49.880Z,73.47
2018-03-06T05:25:18.498Z,74.19
2018-03-06T05:27:46.755Z,74.62
2018-03-06T05:30:15.889Z,74.58
2018-03-06T05:32:44.479Z,74.51
2018-03-06T05:35:12.758Z,74.42
2018-03-06T05:37:41.024Z,74.22
2018-03-06T05:40:09.437Z,73.61
2018-03-06T05:42:37.742Z,74.30
2018-03-06T05:45:07.070Z,75.26
2018-03-06T05:47:35.351Z,74.95
2018-03-06T05:50:03.799Z,73.70
2018-03-06T05:52:32.834Z,74.02
2018-03-06T05:55:01.106Z,74.70
2018-03-06T05:57:29.364Z,75.59
2018-03-06T05:59:57.870Z,75.50
2018-03-06T06:02:26.151Z,75.27
2018-03-06T06:04:55.931Z,75.02
2018-03-06T06:07:24.224Z,74.93
2018-03-06T06:09:53.447Z,75.11
2018-03-06T06:12:21.923Z,74.75
2018-03-06T06:14:50.999Z,75.64
2018-03-06T06:17:19.234Z,75.04
2018-03-06T06:19:48.407Z,74.88
2018-03-06T06:22:18.255Z,75.58
2018-03-06T06:24:48.066Z,75.41
2018-03-06T06:27:16.349Z,75.02
2018-03-06T06:29:44.602Z,75.23
2018-03-06T06:32:14.633Z,76.62
2018-03-06T06:34:42.913Z,75.65
2018-03-06T06:37:11.239Z,75.95
2018-03-06T06:39:41.142Z,76.55
2018-03-06T06:42:09.428Z,76.77
2018-03-06T06:44:38.490Z,76.11
2018-03-06T06:47:06.760Z,75.72
2018-03-06T06:49:35.033Z,76.41
2018-03-06T06:52:04.188Z,76.25
2018-03-06T06:54:32.519Z,74.35
2018-03-06T06:57:00.924Z,74.86
2018-03-06T06:59:30.060Z,74.40
2018-03-06T07:01:58.385Z,74.70
2018-03-06T07:04:26.770Z,74.73
2018-03-06T07:06:55.067Z,73.47
2018-03-06T07:09:24.219Z,74.53
2018-03-06T07:11:52.510Z,73.44
2018-03-06T07:14:21.669Z,73.68
2018-03-06T07:16:50.553Z,73.32
2018-03-06T07:19:18.834Z,74.17
2018-03-06T07:21:50.931Z,72.85
2018-03-06T07:24:19.273Z,72.81
2018-03-06T07:26:48.193Z,73.47
2018-03-06T07:29:16.466Z,72.52
2018-03-06T07:31:46.304Z,71.05
2018-03-06T07:34:15.598Z,71.50
2018-03-06T07:36:47.631Z,71.66
2018-03-06T07:39:15.991Z,71.45
2018-03-06T07:41:46.915Z,71.96
2018-03-06T07:44:15.141Z,70.38
2018-03-06T07:46:43.390Z,70.54
2018-03-06T07:49:11.911Z,70.77
2018-03-06T07:51:40.939Z,70.17
2018-03-06T07:54:09.215Z,71.25
2018-03-06T07:56:38.831Z,69.84
2018-03-06T07:59:07.370Z,70.13
2018-03-06T08:01:35.774Z,70.10
2018-03-06T08:04:04.251Z,69.75
2018-03-06T08:06:33.766Z,70.00
2018-03-06T08:09:02.156Z,70.87
2018-03-06T08:11:31.358Z,70.32
2018-03-06T08:13:59.980Z,69.84
2018-03-06T08:16:28.372Z,70.41
2018-03-06T08:18:58.578Z,69.89
2018-03-06T08:21:28.954Z,68.20
2018-03-06T08:23:57.244Z,68.49
2018-03-06T08:26:27.106Z,69.37
2018-03-06T08:28:55.604Z,68.20
2018-03-06T08:31:24.663Z,67.97
2018-03-06T08:33:54.023Z,66.89
2018-03-06T08:36:22.486Z,67.50
2018-03-06T08:38:50.979Z,67.15
2018-03-06T08:41:20.759Z,66.48
2018-03-06T08:43:50.400Z,67.37
2018-03-06T08:46:18.675Z,67.47
2018-03-06T08:48:46.936Z,66.74
2018-03-06T08:51:15.403Z,65.78
2018-03-06T08:53:43.666Z,65.13
2018-03-06T08:56:11.974Z,63.54
2018-03-06T08:58:40.940Z,63.67
2018-03-06T09:01:09.255Z,64.13
2018-03-06T09:03:38.426Z,63.78
2018-03-06T09:06:06.713Z,63.00
2018-03-06T09:08:35.814Z,63.36
2018-03-06T09:11:04.112Z,62.75
2018-03-06T09:13:32.419Z,62.59
2018-03-06T09:16:01.449Z,61.34
2018-03-06T09:18:29.751Z,61.55
2018-03-06T09:20:58.011Z,61.47
2018-03-06T09:23:26.337Z,62.64
2018-03-06T09:25:54.840Z,62.41
2018-03-06T09:28:23.100Z,62.28
2018-03-06T09:30:52.462Z,61.66
2018-03-06T09:33:20.724Z,61.00
2018-03-06T09:35:49.001Z,60.03
2018-03-06T09:38:17.308Z,60.24
2018-03-06T09:40:46.353Z,59.81
2018-03-06T09:43:14.616Z,59.99
2018-03-06T09:45:42.973Z,60.41
2018-03-06T09:48:12.076Z,60.92
2018-03-06T09:50:40.334Z,59.97
2018-03-06T09:53:08.654Z,59.41
2018-03-06T09:55:37.053Z,59.29
2018-03-06T09:58:05.518Z,59.57
2018-03-06T10:00:33.879Z,61.13
2018-03-06T10:03:02.588Z,59.31
2018-03-06T10:05:30.718Z,59.11
2018-03-06T10:07:58.998Z,58.09
2018-03-06T10:10:27.286Z,57.87
2018-03-06T10:12:55.733Z,58.13
2018-03-06T10:15:24.014Z,56.87
2018-03-06T10:17:52.405Z,57.81
2018-03-06T10:20:20.700Z,58.34
2018-03-06T10:22:49.239Z,58.72
2018-03-06T10:25:17.627Z,58.67
2018-03-06T10:27:45.962Z,58.28
2018-03-06T10:30:14.249Z,59.80
2018-03-06T10:32:42.765Z,58.09
2018-03-06T10:35:11.090Z,57.70
2018-03-06T10:37:39.358Z,57.33
2018-03-06T10:40:07.803Z,58.60
2018-03-06T10:42:36.191Z,57.41
2018-03-06T10:45:04.734Z,57.51
2018-03-06T10:47:34.773Z,57.22
2018-03-06T10:50:03.073Z,57.74
2018-03-06T10:52:31.363Z,58.05
2018-03-06T10:54:59.712Z,58.06
2018-03-06T10:57:28.013Z,59.23
2018-03-06T10:59:56.275Z,59.98
2018-03-06T11:02:32.153Z,59.24
2018-03-06T11:05:01.802Z,59.87
2018-03-06T11:07:31.912Z,60.34
2018-03-06T11:10:00.414Z,59.84
2018-03-06T11:12:28.964Z,60.32
2018-03-06T11:14:58.030Z,59.70
2018-03-06T11:17:26.569Z,58.85
2018-03-06T11:19:54.850Z,59.54
2018-03-06T11:22:23.106Z,59.95
2018-03-06T11:24:51.449Z,59.80
2018-03-06T11:27:20.772Z,60.90
2018-03-06T11:29:49.311Z,60.06
2018-03-06T11:32:18.377Z,60.01
2018-03-06T11:34:46.644Z,59.75
2018-03-06T11:37:15.070Z,58.65
2018-03-06T11:39:43.552Z,58.53
2018-03-06T11:42:11.904Z,59.31
2018-03-06T11:44:42.122Z,59.20
2018-03-06T11:47:10.527Z,59.38
2018-03-06T11:49:38.827Z,59.96
2018-03-06T11:52:07.136Z,58.47
2018-03-06T11:54:35.619Z,58.82
2018-03-06T11:57:05.415Z,59.35
2018-03-06T11:59:33.699Z,58.67
2018-03-06T12:02:02.096Z,58.91
2018-03-06T12:04:30.359Z,58.83
2018-03-06T12:06:58.794Z,57.46
2018-03-06T12:09:27.209Z,58.11
2018-03-06T12:11:55.524Z,56.52
2018-03-06T12:14:24.543Z,55.61
2018-03-06T12:16:53.584Z,55.56
2018-03-06T12:19:22.568Z,54.30
2018-03-06T12:21:50.860Z,55.26
2018-03-06T12:24:19.241Z,55.78
2018-03-06T12:26:48.620Z,55.17
2018-03-06T12:29:16.968Z,54.63
2018-03-06T12:31:45.401Z,54.31
2018-03-06T12:34:13.709Z,54.56
2018-03-06T12:36:42.834Z,56.49
2018-03-06T12:39:13.276Z,55.56
2018-03-06T12:41:41.642Z,55.56
2018-03-06T12:44:09.907Z,56.65
2018-03-06T12:46:40.449Z,56.65
2018-03-06T12:49:08.765Z,56.31
2018-03-06T12:51:37.021Z,55.17
2018-03-06T12:54:05.337Z,55.07
2018-03-06T12:56:34.618Z,54.91
2018-03-06T12:59:02.944Z,54.19
2018-03-06T13:01:31.220Z,53.62
2018-03-06T13:03:59.570Z,54.42
2018-03-06T13:06:27.946Z,54.08
2018-03-06T13:08:57.007Z,55.45
2018-03-06T13:11:25.651Z,54.81
2018-03-06T13:13:55.751Z,54.21
2018-03-06T13:16:24.078Z,54.08
2018-03-06T13:18:52.376Z,54.35
2018-03-06T13:21:21.435Z,54.41
2018-03-06T13:23:49.786Z,53.74
2018-03-06T13:26:20.915Z,52.77
2018-03-06T13:28:49.363Z,53.25
2018-03-06T13:31:17.683Z,52.52
2018-03-06T13:33:47.370Z,52.69
2018-03-06T13:36:17.586Z,51.91
2018-03-06T13:38:46.241Z,52.12
2018-03-06T13:41:17.093Z,51.40
2018-03-06T13:43:46.255Z,51.85
2018-03-06T13:46:20.168Z,52.11
2018-03-06T13:48:50.711Z,53.32
2018-03-06T13:51:19.147Z,52.78
2018-03-06T13:53:47.484Z,51.94
2018-03-06T13:56:15.806Z,52.15
2018-03-06T13:58:45.049Z,52.80
2018-03-06T14:01:13.610Z,53.06
2018-03-06T14:03:41.876Z,52.27
2018-03-06T14:06:10.195Z,53.35
2018-03-06T14:08:40.071Z,52.13
2018-03-06T14:11:08.343Z,52.70
2018-03-06T14:13:36.653Z,53.96
2018-03-06T14:16:06.096Z,52.57
2018-03-06T14:18:35.213Z,53.42
2018-03-06T14:21:03.672Z,51.91
2018-03-06T14:23:31.980Z,51.57
2018-03-06T14:26:00.319Z,51.30
2018-03-06T14:28:29.241Z,50.64
2018-03-06T14:30:57.523Z,50.72
2018-03-06T14:33:26.796Z,51.45
2018-03-06T14:35:56.212Z,51.81
2018-03-06T14:38:24.554Z,50.57
2018-03-06T14:40:53.077Z,50.29
2018-03-06T14:43:21.519Z,49.59
2018-03-06T14:45:50.963Z,50.70
2018-03-06T14:48:19.510Z,50.23
2018-03-06T14:50:47.878Z,49.95
2018-03-06T14:53:16.276Z,48.20
2018-03-06T14:55:44.606Z,48.80
2018-03-06T14:58:13.406Z,50.19
2018-03-06T15:00:41.753Z,49.44
2018-03-06T15:03:10.897Z,50.19
2018-03-06T15:05:39.193Z,50.72
2018-03-06T15:08:07.624Z,49.89
2018-03-06T15:10:36.622Z,50.27
2018-03-06T15:13:05.021Z,50.73
2018-03-06T15:15:33.679Z,50.44
2018-03-06T15:18:02.318Z,50.85
2018-03-06T15:20:30.687Z,51.13
2018-03-06T15:22:59.094Z,50.87
2018-03-06T15:25:27.700Z,50.63
2018-03-06T15:27:57.769Z,50.32
2018-03-06T15:30:26.053Z,51.41
2018-03-06T15:32:54.904Z,51.35
2018-03-06T15:35:23.315Z,51.63
2018-03-06T15:37:52.061Z,52.12
2018-03-06T15:40:20.792Z,51.33
2018-03-06T15:42:49.217Z,50.75
2018-03-06T15:45:18.047Z,51.13
2018-03-06T15:47:46.436Z,50.72
2018-03-06T15:50:14.972Z,51.06
2018-03-06T15:52:43.265Z,51.09
2018-03-06T15:55:12.169Z,51.57
2018-03-06T15:57:40.428Z,52.45
2018-03-06T16:00:09.136Z,51.05
2018-03-06T16:02:37.439Z,50.81
2018-03-06T16:05:06.508Z,51.27
2018-03-06T16:07:34.805Z,50.74
2018-03-06T16:10:04.874Z,51.22
2018-03-06T16:12:33.157Z,51.33
2018-03-06T16:15:02.272Z,52.11
2018-03-06T16:17:30.624Z,52.62
2018-03-06T16:19:58.901Z,52.05
2018-03-06T16:22:27.195Z,53.00
2018-03-06T16:24:55.750Z,53.12
2018-03-06T16:27:24.794Z,53.14
2018-03-06T16:29:54.143Z,53.94
2018-03-06T16:32:22.435Z,54.13
2018-03-06T16:34:51.427Z,54.57
2018-03-06T16:37:19.717Z,54.62
2018-03-06T16:39:50.216Z,54.61
2018-03-06T16:42:18.504Z,54.90
2018-03-06T16:44:46.923Z,54.70
2018-03-06T16:47:16.248Z,54.99
2018-03-06T16:49:44.510Z,55.63
2018-03-06T16:52:14.296Z,55.98
2018-03-06T16:54:42.581Z,56.28
2018-03-06T16:57:11.809Z,56.80
2018-03-06T16:59:40.116Z,57.16
2018-03-06T17:02:08.412Z,58.05
2018-03-06T17:04:36.712Z,58.83
2018-03-06T17:07:06.576Z,59.27
2018-03-06T17:09:34.864Z,59.63
2018-03-06T17:12:03.132Z,59.78
2018-03-06T17:14:31.452Z,59.10
2018-03-06T17:17:05.812Z,58.20
2018-03-06T17:19:34.084Z,58.36
2018-03-06T17:22:02.336Z,59.57
2018-03-06T17:24:30.621Z,59.63
2018-03-06T17:26:58.894Z,59.96
2018-03-06T17:29:28.084Z,60.70
2018-03-06T17:31:56.352Z,61.32
2018-03-06T17:34:24.752Z,61.52
2018-03-06T17:36:53.089Z,62.21
2018-03-06T17:39:24.870Z,62.71
2018-03-06T17:41:53.376Z,63.08
2018-03-06T17:44:21.715Z,63.30
2018-03-06T17:46:50.034Z,63.83
2018-03-06T17:49:18.367Z,63.57
2018-03-06T17:51:46.864Z,64.12
2018-03-06T17:54:15.130Z,64.35
2018-03-06T17:56:43.739Z,64.48
2018-03-06T17:59:12.008Z,64.37
2018-03-06T18:01:40.444Z,64.75
2018-03-06T18:04:09.611Z,65.07
2018-03-06T18:06:37.953Z,64.86
2018-03-06T18:09:06.429Z,64.71
2018-03-06T18:11:34.827Z,64.91
2018-03-06T18:14:03.104Z,64.85
2018-03-06T18:16:31.441Z,65.22
2018-03-06T18:18:59.798Z,65.13
2018-03-06T18:21:29.598Z,65.09
2018-03-06T18:23:58.712Z,65.40
2018-03-06T18:26:27.781Z,65.31
2018-03-06T18:28:57.474Z,65.26
2018-03-06T18:31:26.045Z,65.41
2018-03-06T18:33:54.719Z,65.74
2018-03-06T18:36:23.918Z,65.50
2018-03-06T18:38:52.197Z,65.81
2018-03-06T18:41:20.871Z,66.07
2018-03-06T18:43:49.377Z,65.81
2018-03-06T18:46:17.636Z,66.29
2018-03-06T18:48:46.525Z,66.63
2018-03-06T18:51:14.900Z,67.01
2018-03-06T18:53:44.147Z,67.14
2018-03-06T18:56:13.823Z,67.78
2018-03-06T18:58:43.394Z,68.15
2018-03-06T19:04:58.351Z,69.01
2018-03-06T19:07:27.456Z,69.81
2018-03-06T19:09:56.804Z,70.02
2018-03-06T19:12:26.500Z,70.33
2018-03-06T19:14:56.395Z,70.56
2018-03-06T19:17:26.082Z,70.79
2018-03-06T19:19:55.036Z,71.10
2018-03-06T19:22:24.152Z,71.11
2018-03-06T19:24:53.413Z,71.20
2018-03-06T19:27:22.079Z,71.94
2018-03-06T19:29:51.140Z,72.13
2018-03-06T19:32:20.160Z,72.24
2018-03-06T19:34:48.731Z,72.49
2018-03-06T19:37:17.197Z,72.49
2018-03-06T19:39:46.914Z,72.55
2018-03-06T19:42:15.952Z,72.72
2018-03-06T19:44:44.726Z,72.78
2018-03-06T19:47:13.417Z,73.08
2018-03-06T19:49:41.916Z,73.02
2018-03-06T19:52:10.399Z,72.97
2018-03-06T19:54:39.147Z,72.97
2018-03-06T19:57:08.960Z,73.20
2018-03-06T19:59:37.890Z,73.49
2018-03-06T20:02:06.910Z,73.53
2018-03-06T20:04:36.168Z,73.68
2018-03-06T20:07:06.443Z,74.37
2018-03-06T20:09:34.894Z,75.69
2018-03-06T20:12:03.440Z,76.88
2018-03-06T20:14:37.410Z,77.56
2018-03-06T20:17:06.670Z,77.70
2018-03-06T20:19:41.420Z,78.14
2018-03-06T20:22:10.053Z,77.82
2018-03-06T20:24:44.079Z,77.93
2018-03-06T20:27:12.660Z,77.89
2018-03-06T20:29:42.706Z,77.96
2018-03-06T20:32:16.996Z,79.04
2018-03-06T20:34:46.984Z,79.03
2018-03-06T20:37:16.480Z,79.33
2018-03-06T20:39:50.650Z,78.84
2018-03-06T20:42:19.285Z,79.87
2018-03-06T20:44:48.021Z,80.34
2018-03-06T20:47:22.142Z,80.20
2018-03-06T20:49:50.871Z,81.20
2018-03-06T20:52:19.250Z,81.94
2018-03-06T20:54:53.227Z,82.06
2018-03-06T20:57:21.938Z,82.03
2018-03-06T20:59:50.507Z,82.33
2018-03-06T21:02:19.189Z,82.74
2018-03-06T21:04:47.684Z,83.22
2018-03-06T21:07:16.388Z,83.65
2018-03-06T21:09:45.747Z,83.81
2018-03-06T21:12:14.292Z,83.69
2018-03-06T21:14:44.182Z,83.43
2018-03-06T21:17:13.108Z,83.33
2018-03-06T21:19:42.275Z,83.23
2018-03-06T21:22:14.292Z,83.03
2018-03-06T21:24:42.592Z,82.92
2018-03-06T21:27:10.891Z,82.86
2018-03-06T21:29:41.048Z,83.47
2018-03-06T21:32:10.205Z,83.29
2018-03-06T21:34:38.639Z,83.32
2018-03-06T21:37:07.216Z,83.79
2018-03-06T21:39:36.463Z,84.06
2018-03-06T21:42:05.026Z,84.42
2018-03-06T21:44:33.700Z,83.92
2018-03-06T21:47:02.159Z,83.75
2018-03-06T21:49:30.462Z,83.43
2018-03-06T21:51:59.190Z,83.27
2018-03-06T21:54:27.827Z,83.36
2018-03-06T21:56:56.747Z,83.79
2018-03-06T21:59:25.573Z,83.66
2018-03-06T22:01:54.841Z,84.14
2018-03-06T22:04:23.896Z,84.78
2018-03-06T22:06:53.666Z,85.04
2018-03-06T22:09:22.402Z,84.91
2018-03-06T22:11:51.960Z,85.34
2018-03-06T22:14:21.927Z,85.38
2018-03-06T22:16:51.069Z,85.60
2018-03-06T22:19:19.934Z,86.13
2018-03-06T22:21:48.347Z,85.79
2018-03-06T22:24:16.855Z,85.66
2018-03-06T22:26:45.300Z,85.58
2018-03-06T22:29:13.714Z,85.85
2018-03-06T22:31:42.164Z,85.51
2018-03-06T22:34:10.486Z,85.80
2018-03-06T22:36:38.984Z,85.82
2018-03-06T22:39:07.329Z,86.10
2018-03-06T22:41:35.809Z,86.16
2018-03-06T22:44:04.089Z,86.32
2018-03-06T22:46:33.302Z,86.68
2018-03-06T22:49:01.631Z,86.96
2018-03-06T22:51:29.931Z,86.41
2018-03-06T22:53:58.218Z,86.56
2018-03-06T22:56:26.769Z,87.03
2018-03-06T22:58:55.841Z,86.77
2018-03-06T23:01:25.232Z,86.70
2018-03-06T23:03:55.312Z,87.07
2018-03-06T23:06:25.933Z,87.09
2018-03-06T23:08:54.400Z,87.41
2018-03-06T23:11:23.651Z,87.58
2018-03-06T23:13:52.808Z,88.03
2018-03-06T23:16:21.869Z,88.58
2018-03-06T23:18:50.202Z,88.52
2018-03-06T23:21:18.622Z,88.72
2018-03-06T23:23:47.055Z,89.56
2018-03-06T23:26:15.408Z,89.58
2018-03-06T23:28:44.612Z,89.52
2018-03-06T23:31:13.541Z,89.51
2018-03-06T23:33:44.490Z,89.58
2018-03-06T23:36:12.828Z,89.89
2018-03-06T23:38:41.097Z,89.87
2018-03-06T23:41:11.962Z,90.03
2018-03-06T23:43:41.156Z,89.88
2018-03-06T23:46:10.142Z,90.28
2018-03-06T23:48:38.656Z,90.29
2018-03-06T23:51:07.888Z,90.47
2018-03-06T23:53:36.175Z,90.26
2018-03-06T23:56:05.047Z,90.37
2018-03-06T23:58:33.558Z,90.48
